Edwards Creek Valley, Nevada Weather observations

Data are for observation ending at time listed.
 Day   Time    Ave.   Ave.  Ave.  Vector   Max.   Stn.    Total    Solar   Ave.  
  of    of     Air    Rel.  Wind   Wind    Wind   Baro.  Precip.   Rad.    Soil  
Year   Day     Temp.  Hum.  Speed  Dir.    Gust   Pres.                    Temp. 
2014   (PST)    F      %     mph   deg.    mph     mb.     in.     W/m2     F   
------------------------------------------------------------------------------
 211    3:30   55.7    56    4.3   153      5.6    851     0.00       0     75.3
 211    3:40   57.1    53    5.7   159      7.4    850     0.00       0     75.1
 211    3:50   58.6    50    5.0   158      7.6    850     0.00       0     74.9
 211    4:00   59.1    50    4.0   148      6.1    850     0.00       0     74.7
 211    4:10   57.8    51    1.0   237      3.2    850     0.00       0     74.5
 211    4:20   55.1    52    2.4   269      4.3    850     0.00       0     74.4
 211    4:30   51.3    56    2.0   285      3.2    850     0.00       0     74.2
 211    4:40   52.2    56    2.0   224      3.1    850     0.00       1     74.0
 211    4:50   52.1    55    2.1   141      2.7    851     0.00       5     73.8
 211    5:00   52.5    59    2.2   133      2.6    851     0.00       9     73.5
 211    5:10   54.0    58    3.8   115      5.6    851     0.00      21     73.3
 211    5:20   54.1    58    2.8   109      3.9    851     0.00      42     73.1
 211    5:30   56.6    54    0.5    80      1.5    851     0.00      73     73.0
 211    5:40   59.9    49    0.2   336      1.1    851     0.00      97     72.8
 211    5:50   61.3    46    1.0   300      2.0    851     0.00     132     72.8
 211    6:00   62.4    44    1.0   323      2.3    851     0.00     142     72.8
 211    6:10   63.5    42    1.3   294      2.0    851     0.00     196     72.8
 211    6:20   65.2    40    1.8     7      4.2    851     0.00     227     72.9
 211    6:30   64.6    40    5.0    54      7.0    851     0.00     258     73.1
 211    6:40   64.4    41    4.7    58      6.1    851     0.00     291     73.3
 211    6:50   65.6    41    5.0    58      6.5    851     0.00     322     73.6
 211    7:00   67.8    36    4.4    61      6.0    851     0.00     355     73.9
 211    7:10   70.1    36    3.5    58      5.6    851     0.00     386     74.2
 211    7:20   71.2    36    3.5    33      5.4    851     0.00     419     74.7
 211    7:30   71.3    35    4.8    10      6.7    852     0.00     452     75.1
 211    7:40   71.8    34    4.2     8      6.6    852     0.00     483     75.7
 211    7:50   71.5    35    5.0     1      7.7    852     0.00     514     76.2
 211    8:00   71.7    34    3.2   334      6.0    852     0.00     545     76.8
 211    8:10   73.4    32    2.1    38      6.4    851     0.00     574     77.5
 211    8:20   74.4    32    2.9   347      5.8    851     0.00     603     78.2
 211    8:30   75.1    31    2.9    21      6.4    852     0.00     633     79.0
 211    8:40   76.1    30    3.1   343      5.9    852     0.00     650     79.8
 211    8:50   76.7    29    2.6   345      6.1    852     0.00     688     80.7
 211    9:00   77.6    27    3.8   336      6.2    852     0.00     717     81.6
 211    9:10   78.9    26    3.5    11      7.5    852     0.00     737     82.4
 211    9:20   80.1    24    5.1    14      9.6    852     0.00     756     83.4
 211    9:30   80.7    23    4.7    19      8.0    852     0.00     781     84.2
 211    9:40   80.9    22    5.7    16     10.2    852     0.00     600     85.2
 211    9:50   81.3    22    7.3    21     11.2    852     0.00     694     86.1
 211   10:00   81.9    21    4.8    29     13.8    852     0.00     779     86.9
 211   10:10   82.9    20    6.2    43     11.9    852     0.00     873     87.7
 211   10:20   82.8    20    6.6    38     12.9    851     0.00     925     88.5
 211   10:30   83.4    20    5.6    40     12.2    852     0.00     926     89.3
 211   10:40   84.3    19    7.1    31     15.4    853     0.00     947     90.2
 211   10:50   84.5    18    7.7    71     13.7    852     0.00     919     91.1
 211   11:00   84.0    17    8.1    73     12.0    852     0.00     622     92.1
 211   11:10   83.6    19    5.3    83     11.5    852     0.00     494     92.9
 211   11:20   84.2    18    7.2    37     11.7    852     0.00     734     93.3
 211   11:30   84.5    18    4.5    36      9.4    852     0.00     968     93.8
 211   11:40   85.9    18    5.4    82     13.4    852     0.00    1049     94.4
 211   11:50   86.0    17    6.5    35     14.6    852     0.00     991     95.3
 211   12:00   86.0    17    4.5   351     13.1    852     0.00     970     96.4
 211   12:10   86.7    17    7.0    21     14.8    851     0.00     806     97.3
 211   12:20   86.7    17    6.4    21     14.0    850     0.00     981     97.9
 211   12:30   87.4    17    8.0    40     15.4    850     0.00     989     98.6
 211   12:40   87.2    17    7.3    29     17.0    850     0.00     983     99.4
 211   12:50   87.9    16    7.1     4     14.2    850     0.00     783    100.3
 211   13:00   87.7    16    7.8    35     14.1    850     0.00     925    101.2
 211   13:10   87.9    15    8.1    51     15.1    850     0.00    1003    101.8
 211   13:20   89.0    14   10.2    30     18.0    850     0.00     938    102.5
 211   13:30   88.3    14    8.9    24     17.1    849     0.00     827    103.2
 211   13:40   87.5    15    8.9    51     16.4    849     0.00     582    103.9
 211   13:50   88.2    15    8.5    25     15.3    849     0.00     957    104.2
 211   14:00   88.8    14    8.5   358     15.6    849     0.00     783    104.4
 211   14:10   88.9    14    9.2    15     16.4    849     0.00     862    104.8
 211   14:20   89.0    14    9.5   356     17.4    849     0.00     836    105.2
 211   14:30   88.6    14    7.3   347     16.5    849     0.00     704    105.6
 211   14:40   88.7    13    9.4   347     17.0    849     0.00     513    105.9
 211   14:50   88.1    13    5.3   329     11.0    849     0.00     590    106.0
 211   15:00   88.5    13    7.8    10     13.7    849     0.00     566    105.9
 211   15:10   87.9    13    7.2   319     14.9    849     0.00     306    105.8
 211   15:20   87.3    14    6.9   340     12.5    849     0.00     222    105.5
 211   15:30   87.1    13    7.7    32     12.2    849     0.00     220    105.0
 211   15:40   86.7    14    5.1     2      9.5    849     0.00     219    104.3
 211   15:50   87.2    13    7.7     7     13.2    849     0.00     195    103.6
 211   16:00   87.0    13    4.3   338      7.7    849     0.00     170    103.0
 211   16:10   87.0    13    4.2   325      7.2    849     0.00     186    102.4
 211   16:20   87.0    13    3.0     4      9.8    849     0.00     210    101.9
 211   16:30   87.2    13    6.7   281     12.7    849     0.00     238    101.4
 211   16:40   86.8    15    8.6   242     14.5    849     0.00     215    100.9
 211   16:50   86.0    16   10.7   205     16.8    849     0.00     262    100.5
 211   17:00   84.1    19   12.8   215     19.1    849     0.00     176    100.1
 211   17:10   81.1    26    9.3   225     16.4    850     0.00     111     99.7
 211   17:20   76.3    33   15.4   138     28.7    849     0.02      67     99.0
 211   17:30   75.3    36   11.6   191     19.4    848     0.00      42     97.9
 211   17:40   77.3    30   10.3   203     15.1    848     0.00      31     96.4
 211   17:50   77.9    28    9.7   220     15.3    848     0.00      26     94.9
 211   18:00   77.4    28   13.0   223     20.8    849     0.00      27     93.7
 211   18:10   77.3    27   14.5   217     22.5    848     0.00      29     92.7
 211   18:20   77.1    28   12.8   228     19.0    848     0.00      23     91.7
 211   18:30   76.8    27   12.9   249     22.1    849     0.00      13     90.9
 211   18:40   76.8    28    8.6   241     12.7    849     0.00       9     90.2
 211   18:50   76.2    29    8.5   211     13.4    850     0.00       6     89.6
 211   19:00   75.5    30    9.5   195     14.2    850     0.00       3     89.1
 211   19:10   75.3    30    9.4   165     14.6    849     0.00       1     88.6
 211   19:20   75.1    31   10.9   137     15.1    850     0.00       0     88.2
 211   19:30   75.1    31    9.3   158     21.0    849     0.00       0     87.9
 211   19:40   75.8    30    8.7   154     16.1    850     0.00       0     87.5
 211   19:50   74.6    32   11.3   159     16.5    850     0.00       0     87.2
 211   20:00   74.8    31   11.8   170     17.5    850     0.00       0     86.9
 211   20:10   74.7    31   10.8   174     15.9    850     0.00       0     86.6
 211   20:20   75.1    30    9.2   178     14.6    850     0.00       0     86.3
 211   20:30   75.3    29    9.8   186     13.7    850     0.00       0     86.1
 211   20:40   75.9    28    8.5   196     14.7    850     0.00       0     85.8
 211   20:50   74.9    30    6.7   220      9.7    850     0.00       0     85.6
 211   21:00   74.6    30    9.2   226     13.3    850     0.00       0     85.4
 211   21:10   74.3    30    9.2   222     14.0    850     0.00       0     85.2
 211   21:20   74.3    30    9.3   231     15.0    850     0.00       0     85.0
 211   21:30   74.3    30    8.8   230     13.5    850     0.00       0     84.8
 211   21:40   74.2    30    8.4   228     14.8    849     0.00       0     84.6
 211   21:50   73.9    30    8.6   210     12.3    850     0.00       0     84.3
 211   22:00   73.5    31    9.4   207     14.8    850     0.00       0     84.1
 211   22:10   73.5    30    7.5   214     11.8    850     0.00       0     83.9
 211   22:20   73.4    31    8.3   216     12.3    850     0.00       0     83.8
 211   22:30   73.3    31    7.8   210     12.4    850     0.00       0     83.6
 211   22:40   73.5    31    8.4   205     12.2    850     0.00       0     83.4
 211   22:50   73.5    31    7.4   212     11.5    850     0.00       0     83.2
 211   23:00   73.4    30    7.6   211     12.1    849     0.00       0     83.0
 211   23:10   73.6    30    8.3   210     12.7    850     0.00       0     82.9
 211   23:20   73.0    31    7.1   206     11.8    849     0.00       0     82.7
 211   23:30   73.0    31    7.2   211     11.2    849     0.00       0     82.6
 211   23:40   73.1    31    7.0   213      9.9    849     0.00       0     82.5
 211   23:50   72.8    31    7.9   213     11.4    849     0.00       0     82.3
 212    0:00   72.6    31    7.4   207     11.0    849     0.00       0     82.2
 212    0:10   72.5    32    8.7   201     12.7    849     0.00       0     82.0
 212    0:20   72.5    32    8.5   202     12.6    849     0.00       0     81.9
 212    0:30   72.3    32    7.9   205     11.9    849     0.00       0     81.8
 212    0:40   72.3    32    8.2   218     12.0    849     0.00       0     81.7
 212    0:50   72.5    32    7.6   216     12.0    849     0.00       0     81.5
 212    1:00   72.9    31    8.3   217     13.2    849     0.00       0     81.4
 212    1:10   72.8    32    8.1   215     14.8    849     0.00       0     81.3
 212    1:20   72.7    32    9.8   209     14.3    849     0.00       0     81.2
 212    1:30   72.7    32    9.4   211     13.1    849     0.00       0     81.1
 212    1:40   72.8    31    8.0   224     12.1    849     0.00       0     81.0
 212    1:50   72.8    31    9.0   210     13.1    849     0.00       0     80.9
 212    2:00   72.4    32    9.7   195     14.7    848     0.00       0     80.8
 212    2:10   72.9    31    9.3   207     13.7    848     0.00       0     80.6
 212    2:20   73.3    30    8.9   207     13.9    848     0.00       0     80.5
 212    2:30   73.8    29    8.8   209     13.7    848     0.00       0     80.4
 212    2:40   73.5    29    6.0   215     11.8    848     0.00       0     80.4
 212    2:50   73.0    29    4.7   247      7.2    848     0.00       0     80.3
 212    3:00   72.7    29    4.5   283      6.5    848     0.00       0     80.2
 212    3:10   73.6    28    4.0   268      8.9    848     0.00       0     80.1
 212    3:20   72.8    30    3.6   357      7.3    848     0.00       0     80.0

Return to Carson Sink graphs page.


Western Regional Climate Center,wrcc@dri.edu